sensor_id;sensor_type;location;lat;lon;timestamp;pressure;altitude;pressure_sealevel;temperature;humidity
33625;BME280;19962;47.820;1.930;2023-05-21T00:00:14;100339.94;;;18.68;61.50
33625;BME280;19962;47.820;1.930;2023-05-21T00:02:40;100345.78;;;18.71;61.32
33625;BME280;19962;47.820;1.930;2023-05-21T00:05:08;100334.16;;;18.64;61.27
33625;BME280;19962;47.820;1.930;2023-05-21T00:07:36;100339.19;;;18.57;61.79
33625;BME280;19962;47.820;1.930;2023-05-21T00:10:02;100332.53;;;18.58;61.49
33625;BME280;19962;47.820;1.930;2023-05-21T00:12:29;100340.28;;;18.61;61.46
33625;BME280;19962;47.820;1.930;2023-05-21T00:14:55;100337.56;;;18.51;61.88
33625;BME280;19962;47.820;1.930;2023-05-21T00:17:21;100336.72;;;18.51;61.96
33625;BME280;19962;47.820;1.930;2023-05-21T00:19:48;100331.75;;;18.48;61.86
33625;BME280;19962;47.820;1.930;2023-05-21T00:22:15;100338.91;;;18.59;61.61
33625;BME280;19962;47.820;1.930;2023-05-21T00:24:41;100332.00;;;18.51;62.05
33625;BME280;19962;47.820;1.930;2023-05-21T00:27:09;100331.47;;;18.49;62.13
33625;BME280;19962;47.820;1.930;2023-05-21T00:29:36;100330.97;;;18.42;62.35
33625;BME280;19962;47.820;1.930;2023-05-21T00:32:02;100334.81;;;18.46;62.41
33625;BME280;19962;47.820;1.930;2023-05-21T00:34:28;100322.06;;;18.45;62.37
33625;BME280;19962;47.820;1.930;2023-05-21T00:36:54;100325.72;;;18.31;63.19
33625;BME280;19962;47.820;1.930;2023-05-21T00:39:20;100331.00;;;18.32;63.37
33625;BME280;19962;47.820;1.930;2023-05-21T00:41:47;100328.22;;;18.32;63.19
33625;BME280;19962;47.820;1.930;2023-05-21T00:44:13;100319.38;;;18.20;63.76
33625;BME280;19962;47.820;1.930;2023-05-21T00:46:42;100314.38;;;18.27;63.83
33625;BME280;19962;47.820;1.930;2023-05-21T00:49:10;100317.66;;;18.34;63.54
33625;BME280;19962;47.820;1.930;2023-05-21T00:51:37;100325.50;;;18.22;63.95
33625;BME280;19962;47.820;1.930;2023-05-21T00:54:03;100310.50;;;18.23;63.93
33625;BME280;19962;47.820;1.930;2023-05-21T00:56:30;100312.19;;;18.19;64.26
33625;BME280;19962;47.820;1.930;2023-05-21T00:58:56;100315.47;;;18.21;64.19
33625;BME280;19962;47.820;1.930;2023-05-21T01:01:23;100308.03;;;18.17;64.63
33625;BME280;19962;47.820;1.930;2023-05-21T01:03:53;100303.28;;;18.17;64.88
33625;BME280;19962;47.820;1.930;2023-05-21T01:06:22;100305.53;;;18.15;64.82
33625;BME280;19962;47.820;1.930;2023-05-21T01:08:48;100313.88;;;18.10;65.19
33625;BME280;19962;47.820;1.930;2023-05-21T01:11:16;100313.56;;;18.17;65.21
33625;BME280;19962;47.820;1.930;2023-05-21T01:13:44;100308.84;;;18.17;64.82
33625;BME280;19962;47.820;1.930;2023-05-21T01:16:11;100316.59;;;18.20;64.89
33625;BME280;19962;47.820;1.930;2023-05-21T01:18:38;100308.56;;;18.19;64.94
33625;BME280;19962;47.820;1.930;2023-05-21T01:21:05;100303.31;;;18.12;65.21
33625;BME280;19962;47.820;1.930;2023-05-21T01:23:32;100299.44;;;18.08;65.17
33625;BME280;19962;47.820;1.930;2023-05-21T01:25:59;100300.53;;;18.12;65.28
33625;BME280;19962;47.820;1.930;2023-05-21T01:28:25;100298.88;;;18.11;65.32
33625;BME280;19962;47.820;1.930;2023-05-21T01:30:51;100303.44;;;17.92;66.41
33625;BME280;19962;47.820;1.930;2023-05-21T01:33:24;100303.31;;;18.12;65.55
33625;BME280;19962;47.820;1.930;2023-05-21T01:36:03;100307.75;;;18.13;65.55
33625;BME280;19962;47.820;1.930;2023-05-21T01:38:46;100301.09;;;18.14;65.94
33625;BME280;19962;47.820;1.930;2023-05-21T01:41:17;100297.25;;;18.05;66.47
33625;BME280;19962;47.820;1.930;2023-05-21T01:43:45;100298.91;;;18.06;66.27
33625;BME280;19962;47.820;1.930;2023-05-21T01:46:16;100310.53;;;18.13;66.10
33625;BME280;19962;47.820;1.930;2023-05-21T01:48:43;100298.34;;;18.04;66.32
33625;BME280;19962;47.820;1.930;2023-05-21T01:51:09;100302.22;;;18.08;66.06
33625;BME280;19962;47.820;1.930;2023-05-21T01:53:36;100298.31;;;18.14;66.14
33625;BME280;19962;47.820;1.930;2023-05-21T01:56:06;100310.53;;;18.18;65.72
33625;BME280;19962;47.820;1.930;2023-05-21T01:58:32;100321.00;;;18.26;65.50
33625;BME280;19962;47.820;1.930;2023-05-21T02:00:58;100321.56;;;18.28;65.74
33625;BME280;19962;47.820;1.930;2023-05-21T02:03:25;100315.47;;;18.21;65.31
33625;BME280;19962;47.820;1.930;2023-05-21T02:05:55;100316.09;;;18.08;66.60
33625;BME280;19962;47.820;1.930;2023-05-21T02:08:22;100298.34;;;18.04;66.80
33625;BME280;19962;47.820;1.930;2023-05-21T02:10:48;100306.72;;;17.99;67.01
33625;BME280;19962;47.820;1.930;2023-05-21T02:13:15;100305.31;;;18.02;67.00
33625;BME280;19962;47.820;1.930;2023-05-21T02:15:45;100310.00;;;18.11;66.51
33625;BME280;19962;47.820;1.930;2023-05-21T02:18:12;100307.75;;;18.13;66.54
33625;BME280;19962;47.820;1.930;2023-05-21T02:20:41;100306.41;;;18.06;66.85
33625;BME280;19962;47.820;1.930;2023-05-21T02:23:08;100309.44;;;18.14;66.89
33625;BME280;19962;47.820;1.930;2023-05-21T02:25:34;100309.41;;;18.19;66.52
33625;BME280;19962;47.820;1.930;2023-05-21T02:28:00;100303.84;;;18.19;66.86
33625;BME280;19962;47.820;1.930;2023-05-21T02:30:27;100307.25;;;18.06;67.58
33625;BME280;19962;47.820;1.930;2023-05-21T02:32:54;100311.16;;;17.95;68.08
33625;BME280;19962;47.820;1.930;2023-05-21T02:35:20;100307.84;;;17.93;68.01
33625;BME280;19962;47.820;1.930;2023-05-21T02:37:46;100314.22;;;17.99;67.63
33625;BME280;19962;47.820;1.930;2023-05-21T02:40:13;100310.84;;;18.02;67.59
33625;BME280;19962;47.820;1.930;2023-05-21T02:42:40;100309.47;;;18.09;67.27
33625;BME280;19962;47.820;1.930;2023-05-21T02:45:07;100316.09;;;18.08;67.18
33625;BME280;19962;47.820;1.930;2023-05-21T02:47:34;100320.31;;;18.01;67.36
33625;BME280;19962;47.820;1.930;2023-05-21T02:50:00;100301.75;;;17.96;67.97
33625;BME280;19962;47.820;1.930;2023-05-21T02:52:27;100301.47;;;17.98;67.71
33625;BME280;19962;47.820;1.930;2023-05-21T02:54:53;100302.84;;;18.00;67.66
33625;BME280;19962;47.820;1.930;2023-05-21T02:57:19;100296.50;;;17.90;68.06
33625;BME280;19962;47.820;1.930;2023-05-21T02:59:45;100293.38;;;18.01;67.51
33625;BME280;19962;47.820;1.930;2023-05-21T03:02:11;100310.06;;;17.96;67.94
33625;BME280;19962;47.820;1.930;2023-05-21T03:04:37;100307.81;;;17.98;67.61
33625;BME280;19962;47.820;1.930;2023-05-21T03:07:13;100303.41;;;17.97;68.03
33625;BME280;19962;47.820;1.930;2023-05-21T03:09:40;100302.06;;;17.90;68.39
33625;BME280;19962;47.820;1.930;2023-05-21T03:12:07;100307.63;;;17.80;69.08
33625;BME280;19962;47.820;1.930;2023-05-21T03:14:34;100309.31;;;17.76;68.86
33625;BME280;19962;47.820;1.930;2023-05-21T03:17:00;100315.44;;;17.73;69.13
33625;BME280;19962;47.820;1.930;2023-05-21T03:19:33;100314.31;;;17.74;69.15
33625;BME280;19962;47.820;1.930;2023-05-21T03:22:01;100316.81;;;17.75;69.05
33625;BME280;19962;47.820;1.930;2023-05-21T03:24:28;100309.00;;;17.77;69.21
33625;BME280;19962;47.820;1.930;2023-05-21T03:26:58;100317.34;;;17.77;69.17
33625;BME280;19962;47.820;1.930;2023-05-21T03:29:26;100314.00;;;17.80;69.09
33625;BME280;19962;47.820;1.930;2023-05-21T03:31:53;100315.41;;;17.78;69.52
33625;BME280;19962;47.820;1.930;2023-05-21T03:34:19;100314.59;;;17.72;69.40
33625;BME280;19962;47.820;1.930;2023-05-21T03:36:46;100312.41;;;17.69;69.79
33625;BME280;19962;47.820;1.930;2023-05-21T03:39:12;100312.38;;;17.74;69.39
33625;BME280;19962;47.820;1.930;2023-05-21T03:41:38;100319.59;;;17.75;69.41
33625;BME280;19962;47.820;1.930;2023-05-21T03:44:05;100322.88;;;17.77;69.44
33625;BME280;19962;47.820;1.930;2023-05-21T03:46:31;100327.34;;;17.78;69.36
33625;BME280;19962;47.820;1.930;2023-05-21T03:48:58;100327.59;;;17.82;69.21
33625;BME280;19962;47.820;1.930;2023-05-21T03:51:24;100322.59;;;17.84;69.48
33625;BME280;19962;47.820;1.930;2023-05-21T03:53:50;100326.22;;;17.84;69.67
33625;BME280;19962;47.820;1.930;2023-05-21T03:56:17;100326.50;;;17.78;69.90
33625;BME280;19962;47.820;1.930;2023-05-21T03:58:43;100330.69;;;17.70;70.18
33625;BME280;19962;47.820;1.930;2023-05-21T04:01:09;100332.91;;;17.73;69.98
33625;BME280;19962;47.820;1.930;2023-05-21T04:03:35;100329.03;;;17.74;70.12
33625;BME280;19962;47.820;1.930;2023-05-21T04:06:02;100333.44;;;17.75;70.53
33625;BME280;19962;47.820;1.930;2023-05-21T04:08:28;100334.84;;;17.73;70.53
33625;BME280;19962;47.820;1.930;2023-05-21T04:10:55;100330.44;;;17.62;71.15
33625;BME280;19962;47.820;1.930;2023-05-21T04:13:21;100329.03;;;17.64;70.70
33625;BME280;19962;47.820;1.930;2023-05-21T04:15:47;100322.41;;;17.65;70.57
33625;BME280;19962;47.820;1.930;2023-05-21T04:18:13;100327.41;;;17.58;71.24
33625;BME280;19962;47.820;1.930;2023-05-21T04:20:43;100329.03;;;17.59;71.48
33625;BME280;19962;47.820;1.930;2023-05-21T04:23:09;100326.84;;;17.61;71.39
33625;BME280;19962;47.820;1.930;2023-05-21T04:25:35;100322.41;;;17.55;71.58
33625;BME280;19962;47.820;1.930;2023-05-21T04:28:01;100321.59;;;17.55;71.39
33625;BME280;19962;47.820;1.930;2023-05-21T04:30:28;100325.75;;;17.57;71.60
33625;BME280;19962;47.820;1.930;2023-05-21T04:32:54;100329.03;;;17.59;71.43
33625;BME280;19962;47.820;1.930;2023-05-21T04:35:20;100329.03;;;17.69;71.41
33625;BME280;19962;47.820;1.930;2023-05-21T04:37:46;100330.69;;;17.70;71.12
33625;BME280;19962;47.820;1.930;2023-05-21T04:40:12;100328.19;;;17.74;71.18
33625;BME280;19962;47.820;1.930;2023-05-21T04:42:45;100326.81;;;17.66;71.49
33625;BME280;19962;47.820;1.930;2023-05-21T04:45:13;100330.19;;;17.53;71.83
33625;BME280;19962;47.820;1.930;2023-05-21T04:47:39;100330.72;;;17.65;71.31
33625;BME280;19962;47.820;1.930;2023-05-21T04:50:06;100329.63;;;17.61;71.81
33625;BME280;19962;47.820;1.930;2023-05-21T04:52:32;100331.25;;;17.67;70.93
33625;BME280;19962;47.820;1.930;2023-05-21T04:54:59;100334.00;;;17.82;70.65
33625;BME280;19962;47.820;1.930;2023-05-21T04:57:27;100336.50;;;17.74;71.18
33625;BME280;19962;47.820;1.930;2023-05-21T04:59:54;100340.09;;;17.79;70.74
33625;BME280;19962;47.820;1.930;2023-05-21T05:02:21;100342.00;;;17.84;70.97
33625;BME280;19962;47.820;1.930;2023-05-21T05:04:47;100344.47;;;17.95;70.37
33625;BME280;19962;47.820;1.930;2023-05-21T05:07:13;100342.22;;;18.07;69.83
33625;BME280;19962;47.820;1.930;2023-05-21T05:09:40;100346.91;;;18.17;69.59
33625;BME280;19962;47.820;1.930;2023-05-21T05:12:06;100344.94;;;18.22;69.35
33625;BME280;19962;47.820;1.930;2023-05-21T05:14:32;100350.47;;;18.27;68.47
33625;BME280;19962;47.820;1.930;2023-05-21T05:16:58;100361.91;;;18.16;69.09
33625;BME280;19962;47.820;1.930;2023-05-21T05:19:26;100358.66;;;17.94;70.28
33625;BME280;19962;47.820;1.930;2023-05-21T05:21:52;100357.81;;;17.93;70.27
33625;BME280;19962;47.820;1.930;2023-05-21T05:24:18;100350.94;;;17.76;71.01
33625;BME280;19962;47.820;1.930;2023-05-21T05:26:45;100347.56;;;17.84;70.97
33625;BME280;19962;47.820;1.930;2023-05-21T05:29:11;100359.19;;;17.96;70.70
33625;BME280;19962;47.820;1.930;2023-05-21T05:31:37;100364.47;;;17.97;70.51
33625;BME280;19962;47.820;1.930;2023-05-21T05:34:03;100359.75;;;17.93;70.60
33625;BME280;19962;47.820;1.930;2023-05-21T05:36:29;100367.28;;;17.82;70.94
33625;BME280;19962;47.820;1.930;2023-05-21T05:38:56;100368.09;;;17.88;70.90
33625;BME280;19962;47.820;1.930;2023-05-21T05:41:22;100371.16;;;17.86;71.16
33625;BME280;19962;47.820;1.930;2023-05-21T05:43:48;100372.28;;;17.80;71.07
33625;BME280;19962;47.820;1.930;2023-05-21T05:46:14;100373.38;;;17.89;71.00
33625;BME280;19962;47.820;1.930;2023-05-21T05:48:40;100366.19;;;17.83;71.55
33625;BME280;19962;47.820;1.930;2023-05-21T05:51:06;100365.06;;;17.84;71.47
33625;BME280;19962;47.820;1.930;2023-05-21T05:53:32;100367.22;;;18.02;70.51
33625;BME280;19962;47.820;1.930;2023-05-21T05:55:59;100373.63;;;18.03;70.33
33625;BME280;19962;47.820;1.930;2023-05-21T05:58:25;100378.28;;;18.12;70.11
33625;BME280;19962;47.820;1.930;2023-05-21T06:00:51;100379.41;;;18.06;70.30
33625;BME280;19962;47.820;1.930;2023-05-21T06:03:17;100383.31;;;18.05;70.49
33625;BME280;19962;47.820;1.930;2023-05-21T06:05:43;100383.56;;;18.09;70.65
33625;BME280;19962;47.820;1.930;2023-05-21T06:08:09;100379.13;;;18.13;70.11
33625;BME280;19962;47.820;1.930;2023-05-21T06:10:35;100381.13;;;17.97;70.75
33625;BME280;19962;47.820;1.930;2023-05-21T06:13:02;100375.50;;;18.12;70.12
33625;BME280;19962;47.820;1.930;2023-05-21T06:15:28;100373.47;;;18.33;69.61
33625;BME280;19962;47.820;1.930;2023-05-21T06:17:54;100368.72;;;18.43;68.80
33625;BME280;19962;47.820;1.930;2023-05-21T06:20:21;100369.25;;;18.50;68.52
33625;BME280;19962;47.820;1.930;2023-05-21T06:22:47;100367.84;;;18.53;68.87
33625;BME280;19962;47.820;1.930;2023-05-21T06:25:13;100373.44;;;18.48;69.58
33625;BME280;19962;47.820;1.930;2023-05-21T06:27:39;100376.25;;;18.43;69.76
33625;BME280;19962;47.820;1.930;2023-05-21T06:30:06;100382.06;;;18.46;69.83
33625;BME280;19962;47.820;1.930;2023-05-21T06:32:32;100381.53;;;18.34;69.70
33625;BME280;19962;47.820;1.930;2023-05-21T06:34:58;100380.69;;;18.44;69.68
33625;BME280;19962;47.820;1.930;2023-05-21T06:37:24;100376.00;;;18.34;70.15
33625;BME280;19962;47.820;1.930;2023-05-21T06:39:50;100372.91;;;18.41;69.89
33625;BME280;19962;47.820;1.930;2023-05-21T06:42:16;100380.38;;;18.50;69.52
33625;BME280;19962;47.820;1.930;2023-05-21T06:44:42;100381.69;;;18.58;69.03
33625;BME280;19962;47.820;1.930;2023-05-21T06:47:08;100388.03;;;18.68;68.28
33625;BME280;19962;47.820;1.930;2023-05-21T06:49:34;100379.91;;;18.77;68.53
33625;BME280;19962;47.820;1.930;2023-05-21T06:52:00;100384.03;;;18.84;68.31
33625;BME280;19962;47.820;1.930;2023-05-21T06:54:26;100383.19;;;18.89;68.07
33625;BME280;19962;47.820;1.930;2023-05-21T06:56:53;100382.56;;;18.97;67.58
33625;BME280;19962;47.820;1.930;2023-05-21T06:59:19;100389.22;;;19.01;67.40
33625;BME280;19962;47.820;1.930;2023-05-21T07:01:45;100380.69;;;18.87;67.86
33625;BME280;19962;47.820;1.930;2023-05-21T07:04:11;100385.16;;;18.83;68.20
33625;BME280;19962;47.820;1.930;2023-05-21T07:06:38;100376.78;;;18.88;67.91
33625;BME280;19962;47.820;1.930;2023-05-21T07:09:05;100381.25;;;18.84;67.56
33625;BME280;19962;47.820;1.930;2023-05-21T07:11:32;100387.94;;;18.83;67.85
33625;BME280;19962;47.820;1.930;2023-05-21T07:13:58;100378.47;;;18.89;67.58
33625;BME280;19962;47.820;1.930;2023-05-21T07:16:28;100390.44;;;18.85;67.67
33625;BME280;19962;47.820;1.930;2023-05-21T07:18:54;100397.09;;;18.84;67.80
33625;BME280;19962;47.820;1.930;2023-05-21T07:21:21;100390.38;;;18.90;67.96
33625;BME280;19962;47.820;1.930;2023-05-21T07:23:47;100386.44;;;19.01;67.77
33625;BME280;19962;47.820;1.930;2023-05-21T07:26:13;100390.03;;;19.01;68.08
33625;BME280;19962;47.820;1.930;2023-05-21T07:28:39;100369.44;;;19.02;67.88
33625;BME280;19962;47.820;1.930;2023-05-21T07:31:05;100372.22;;;19.02;68.42
33625;BME280;19962;47.820;1.930;2023-05-21T07:33:31;100367.28;;;18.94;68.43
33625;BME280;19962;47.820;1.930;2023-05-21T07:35:57;100376.16;;;18.96;68.43
33625;BME280;19962;47.820;1.930;2023-05-21T07:38:23;100375.56;;;19.04;67.67
33625;BME280;19962;47.820;1.930;2023-05-21T07:40:49;100375.84;;;19.03;68.08
33625;BME280;19962;47.820;1.930;2023-05-21T07:43:15;100366.00;;;19.15;67.67
33625;BME280;19962;47.820;1.930;2023-05-21T07:45:42;100364.84;;;19.21;67.70
33625;BME280;19962;47.820;1.930;2023-05-21T07:48:08;100376.06;;;19.11;67.97
33625;BME280;19962;47.820;1.930;2023-05-21T07:50:34;100370.41;;;19.21;67.42
33625;BME280;19962;47.820;1.930;2023-05-21T07:53:00;100377.22;;;19.05;67.83
33625;BME280;19962;47.820;1.930;2023-05-21T07:55:26;100368.25;;;19.13;67.30
33625;BME280;19962;47.820;1.930;2023-05-21T07:57:52;100372.94;;;19.23;67.03
33625;BME280;19962;47.820;1.930;2023-05-21T08:00:21;100369.03;;;19.24;66.73
33625;BME280;19962;47.820;1.930;2023-05-21T08:02:47;100375.97;;;19.21;66.59
33625;BME280;19962;47.820;1.930;2023-05-21T08:05:14;100377.63;;;19.22;66.69
33625;BME280;19962;47.820;1.930;2023-05-21T08:07:41;100382.34;;;19.27;66.52
33625;BME280;19962;47.820;1.930;2023-05-21T08:10:07;100380.94;;;19.29;66.23
33625;BME280;19962;47.820;1.930;2023-05-21T08:12:34;100383.13;;;19.32;65.83
33625;BME280;19962;47.820;1.930;2023-05-21T08:15:00;100388.06;;;19.40;65.71
33625;BME280;19962;47.820;1.930;2023-05-21T08:17:26;100397.41;;;19.54;65.58
33625;BME280;19962;47.820;1.930;2023-05-21T08:19:53;100395.19;;;19.51;65.17
33625;BME280;19962;47.820;1.930;2023-05-21T08:22:19;100392.28;;;19.66;65.03
33625;BME280;19962;47.820;1.930;2023-05-21T08:24:45;100387.00;;;19.65;64.56
33625;BME280;19962;47.820;1.930;2023-05-21T08:27:11;100379.38;;;19.75;64.46
33625;BME280;19962;47.820;1.930;2023-05-21T08:29:37;100381.25;;;19.85;64.16
33625;BME280;19962;47.820;1.930;2023-05-21T08:32:04;100367.13;;;19.76;63.40
33625;BME280;19962;47.820;1.930;2023-05-21T08:34:30;100358.69;;;19.81;63.17
33625;BME280;19962;47.820;1.930;2023-05-21T08:36:56;100372.91;;;19.80;63.06
33625;BME280;19962;47.820;1.930;2023-05-21T08:39:22;100376.47;;;19.85;62.69
33625;BME280;19962;47.820;1.930;2023-05-21T08:41:49;100363.13;;;19.82;62.52
33625;BME280;19962;47.820;1.930;2023-05-21T08:44:20;100360.00;;;19.89;62.03
33625;BME280;19962;47.820;1.930;2023-05-21T08:46:50;100371.13;;;19.94;61.78
33625;BME280;19962;47.820;1.930;2023-05-21T08:49:23;100365.22;;;19.95;61.35
33625;BME280;19962;47.820;1.930;2023-05-21T08:51:52;100372.34;;;20.06;60.81
33625;BME280;19962;47.820;1.930;2023-05-21T08:54:18;100365.84;;;20.16;60.53
33625;BME280;19962;47.820;1.930;2023-05-21T08:56:44;100381.66;;;20.20;59.62
33625;BME280;19962;47.820;1.930;2023-05-21T08:59:14;100390.47;;;20.04;58.43
33625;BME280;19962;47.820;1.930;2023-05-21T09:01:42;100385.72;;;20.04;58.30
33625;BME280;19962;47.820;1.930;2023-05-21T09:04:14;100375.78;;;19.98;57.85
33625;BME280;19962;47.820;1.930;2023-05-21T09:06:41;100379.41;;;19.99;58.37
33625;BME280;19962;47.820;1.930;2023-05-21T09:09:18;100381.00;;;20.05;57.78
33625;BME280;19962;47.820;1.930;2023-05-21T09:11:48;100370.88;;;20.14;58.48
33625;BME280;19962;47.820;1.930;2023-05-21T09:14:15;100372.41;;;20.25;58.46
33625;BME280;19962;47.820;1.930;2023-05-21T09:16:41;100362.03;;;20.30;58.17
33625;BME280;19962;47.820;1.930;2023-05-21T09:19:07;100368.22;;;20.27;58.13
33625;BME280;19962;47.820;1.930;2023-05-21T09:21:33;100373.78;;;20.27;57.84
33625;BME280;19962;47.820;1.930;2023-05-21T09:24:00;100377.63;;;20.31;58.08
33625;BME280;19962;47.820;1.930;2023-05-21T09:26:26;100367.75;;;20.20;58.44
33625;BME280;19962;47.820;1.930;2023-05-21T09:28:57;100379.31;;;20.32;58.11
33625;BME280;19962;47.820;1.930;2023-05-21T09:31:24;100379.59;;;20.31;58.01
33625;BME280;19962;47.820;1.930;2023-05-21T09:33:51;100383.75;;;20.33;57.99
33625;BME280;19962;47.820;1.930;2023-05-21T09:36:19;100379.22;;;20.37;58.36
33625;BME280;19962;47.820;1.930;2023-05-21T09:38:49;100375.31;;;20.38;58.02
33625;BME280;19962;47.820;1.930;2023-05-21T09:41:17;100379.69;;;20.44;58.36
33625;BME280;19962;47.820;1.930;2023-05-21T09:43:44;100379.69;;;20.44;57.94
33625;BME280;19962;47.820;1.930;2023-05-21T09:46:10;100373.50;;;20.47;58.35
33625;BME280;19962;47.820;1.930;2023-05-21T09:48:37;100370.72;;;20.47;58.69
33625;BME280;19962;47.820;1.930;2023-05-21T09:51:12;100370.88;;;20.56;58.68
33625;BME280;19962;47.820;1.930;2023-05-21T09:53:48;100357.19;;;20.59;58.17
33625;BME280;19962;47.820;1.930;2023-05-21T09:56:16;100354.25;;;20.69;58.40
33625;BME280;19962;47.820;1.930;2023-05-21T09:58:42;100353.94;;;20.71;57.94
33625;BME280;19962;47.820;1.930;2023-05-21T10:01:10;100367.34;;;20.69;57.83
33625;BME280;19962;47.820;1.930;2023-05-21T10:03:38;100364.34;;;20.65;57.51
33625;BME280;19962;47.820;1.930;2023-05-21T10:06:07;100363.28;;;20.61;57.81
33625;BME280;19962;47.820;1.930;2023-05-21T10:08:35;100362.47;;;20.61;57.14
33625;BME280;19962;47.820;1.930;2023-05-21T10:11:05;100357.47;;;20.58;56.58
33625;BME280;19962;47.820;1.930;2023-05-21T10:13:35;100352.56;;;20.50;56.35
33625;BME280;19962;47.820;1.930;2023-05-21T10:16:03;100351.06;;;20.57;56.21
33625;BME280;19962;47.820;1.930;2023-05-21T10:18:31;100348.22;;;20.62;55.79
33625;BME280;19962;47.820;1.930;2023-05-21T10:20:59;100345.97;;;20.64;55.67
33625;BME280;19962;47.820;1.930;2023-05-21T10:23:26;100337.34;;;20.79;55.38
33625;BME280;19962;47.820;1.930;2023-05-21T10:25:53;100347.38;;;20.80;55.30
33625;BME280;19962;47.820;1.930;2023-05-21T10:28:22;100348.44;;;20.84;54.91
33625;BME280;19962;47.820;1.930;2023-05-21T10:30:49;100348.97;;;20.86;54.63
33625;BME280;19962;47.820;1.930;2023-05-21T10:33:15;100338.91;;;20.90;54.61
33625;BME280;19962;47.820;1.930;2023-05-21T10:35:42;100333.06;;;20.87;54.52
33625;BME280;19962;47.820;1.930;2023-05-21T10:38:10;100333.03;;;20.92;54.33
33625;BME280;19962;47.820;1.930;2023-05-21T10:40:36;100324.38;;;20.88;54.04
33625;BME280;19962;47.820;1.930;2023-05-21T10:45:51;100329.22;;;21.01;53.80
33625;BME280;19962;47.820;1.930;2023-05-21T10:51:28;100325.84;;;21.04;53.02
33625;BME280;19962;47.820;1.930;2023-05-21T10:57:19;100326.06;;;21.08;53.16
33625;BME280;19962;47.820;1.930;2023-05-21T10:59:50;100326.81;;;21.13;53.02
33625;BME280;19962;47.820;1.930;2023-05-21T11:02:18;100318.94;;;21.15;52.22
33625;BME280;19962;47.820;1.930;2023-05-21T11:04:45;100326.63;;;21.23;52.19
33625;BME280;19962;47.820;1.930;2023-05-21T11:07:13;100329.00;;;21.30;52.24
33625;BME280;19962;47.820;1.930;2023-05-21T11:09:40;100321.47;;;21.30;51.75
33625;BME280;19962;47.820;1.930;2023-05-21T11:12:06;100331.91;;;21.38;52.04
33625;BME280;19962;47.820;1.930;2023-05-21T11:14:55;100335.75;;;21.42;52.21
33625;BME280;19962;47.820;1.930;2023-05-21T11:17:38;100334.09;;;21.41;51.67
33625;BME280;19962;47.820;1.930;2023-05-21T11:20:11;100327.31;;;21.47;52.06
33625;BME280;19962;47.820;1.930;2023-05-21T11:22:41;100325.88;;;21.50;51.96
33625;BME280;19962;47.820;1.930;2023-05-21T11:25:07;100330.72;;;21.44;51.86
33625;BME280;19962;47.820;1.930;2023-05-21T11:27:41;100336.72;;;21.51;51.90
33625;BME280;19962;47.820;1.930;2023-05-21T11:30:25;100332.16;;;21.55;51.74
33625;BME280;19962;47.820;1.930;2023-05-21T11:38:10;100337.25;;;21.67;51.53
33625;BME280;19962;47.820;1.930;2023-05-21T11:40:36;100337.53;;;21.70;51.73
33625;BME280;19962;47.820;1.930;2023-05-21T11:43:02;100326.56;;;21.74;52.28
33625;BME280;19962;47.820;1.930;2023-05-21T11:45:30;100335.13;;;21.77;52.04
33625;BME280;19962;47.820;1.930;2023-05-21T11:47:57;100328.63;;;21.82;52.17
33625;BME280;19962;47.820;1.930;2023-05-21T11:50:24;100315.81;;;21.81;51.32
33625;BME280;19962;47.820;1.930;2023-05-21T11:52:50;100319.94;;;21.83;50.91
33625;BME280;19962;47.820;1.930;2023-05-21T11:55:21;100319.72;;;21.80;50.53
33625;BME280;19962;47.820;1.930;2023-05-21T11:57:47;100316.63;;;21.81;51.01
33625;BME280;19962;47.820;1.930;2023-05-21T12:00:17;100316.81;;;21.85;51.09
33625;BME280;19962;47.820;1.930;2023-05-21T12:02:51;100319.13;;;21.96;50.42
33625;BME280;19962;47.820;1.930;2023-05-21T12:05:17;100313.22;;;22.11;50.21
33625;BME280;19962;47.820;1.930;2023-05-21T12:07:46;100318.69;;;22.16;50.17
33625;BME280;19962;47.820;1.930;2023-05-21T12:10:15;100311.75;;;22.14;50.11
33625;BME280;19962;47.820;1.930;2023-05-21T12:12:41;100309.38;;;22.21;50.36
33625;BME280;19962;47.820;1.930;2023-05-21T12:15:08;100316.31;;;22.23;50.47
33625;BME280;19962;47.820;1.930;2023-05-21T12:17:35;100313.41;;;22.28;50.23
33625;BME280;19962;47.820;1.930;2023-05-21T12:20:01;100304.41;;;22.18;50.21
33625;BME280;19962;47.820;1.930;2023-05-21T12:22:32;100306.47;;;22.12;50.16
33625;BME280;19962;47.820;1.930;2023-05-21T12:24:59;100304.81;;;22.11;50.18
33625;BME280;19962;47.820;1.930;2023-05-21T12:27:26;100304.41;;;22.18;50.16
33625;BME280;19962;47.820;1.930;2023-05-21T12:29:53;100300.66;;;22.22;50.06
33625;BME280;19962;47.820;1.930;2023-05-21T12:32:20;100302.94;;;22.20;49.96
33625;BME280;19962;47.820;1.930;2023-05-21T12:34:51;100294.44;;;22.25;49.64
33625;BME280;19962;47.820;1.930;2023-05-21T12:37:26;100304.47;;;22.26;49.43
33625;BME280;19962;47.820;1.930;2023-05-21T12:39:54;100297.00;;;22.35;49.83
33625;BME280;19962;47.820;1.930;2023-05-21T12:42:38;100289.78;;;22.34;49.75
33625;BME280;19962;47.820;1.930;2023-05-21T12:45:06;100280.78;;;22.37;49.87
33625;BME280;19962;47.820;1.930;2023-05-21T12:47:33;100285.34;;;22.33;50.09
33625;BME280;19962;47.820;1.930;2023-05-21T12:50:08;100290.94;;;22.33;49.51
33625;BME280;19962;47.820;1.930;2023-05-21T12:52:39;100277.66;;;22.39;49.08
33625;BME280;19962;47.820;1.930;2023-05-21T12:55:08;100285.09;;;22.43;49.42
33625;BME280;19962;47.820;1.930;2023-05-21T12:57:38;100278.97;;;22.55;49.32
33625;BME280;19962;47.820;1.930;2023-05-21T13:00:05;100276.72;;;22.57;49.75
33625;BME280;19962;47.820;1.930;2023-05-21T13:02:34;100286.31;;;22.64;50.58
33625;BME280;19962;47.820;1.930;2023-05-21T13:05:02;100278.44;;;22.66;49.77